sensor_id;sensor_type;location;lat;lon;timestamp;pressure;altitude;pressure_sealevel;temperature;humidity
33075;BME280;19433;51.292;6.868;2023-04-15T00:01:57;99519.53;;;6.12;79.69
33075;BME280;19433;51.292;6.868;2023-04-15T00:04:23;99527.53;;;6.07;79.68
33075;BME280;19433;51.292;6.868;2023-04-15T00:06:56;99527.56;;;6.14;78.49
33075;BME280;19433;51.292;6.868;2023-04-15T00:09:21;99523.38;;;6.18;78.85
33075;BME280;19433;51.292;6.868;2023-04-15T00:11:46;99533.75;;;6.22;78.44
33075;BME280;19433;51.292;6.868;2023-04-15T00:14:12;99524.59;;;6.43;77.41
33075;BME280;19433;51.292;6.868;2023-04-15T00:16:38;99529.22;;;6.36;77.69
33075;BME280;19433;51.292;6.868;2023-04-15T00:19:03;99521.13;;;6.28;77.96
33075;BME280;19433;51.292;6.868;2023-04-15T00:21:29;99528.97;;;6.31;77.54
33075;BME280;19433;51.292;6.868;2023-04-15T00:23:54;99530.47;;;6.33;77.71
33075;BME280;19433;51.292;6.868;2023-04-15T00:26:25;99528.56;;;6.34;77.10
33075;BME280;19433;51.292;6.868;2023-04-15T00:28:51;99512.34;;;6.11;80.12
33075;BME280;19433;51.292;6.868;2023-04-15T00:31:16;99517.78;;;6.05;79.10
33075;BME280;19433;51.292;6.868;2023-04-15T00:33:41;99530.38;;;5.99;79.99
33075;BME280;19433;51.292;6.868;2023-04-15T00:36:07;99533.75;;;5.94;79.67
33075;BME280;19433;51.292;6.868;2023-04-15T00:38:32;99536.03;;;5.91;80.35
33075;BME280;19433;51.292;6.868;2023-04-15T00:40:58;99534.34;;;5.90;81.31
33075;BME280;19433;51.292;6.868;2023-04-15T00:43:28;99542.88;;;5.80;81.23
33075;BME280;19433;51.292;6.868;2023-04-15T00:45:55;99535.88;;;5.78;82.12
33075;BME280;19433;51.292;6.868;2023-04-15T00:48:21;99528.53;;;5.85;81.06
33075;BME280;19433;51.292;6.868;2023-04-15T00:50:47;99523.69;;;5.80;81.78
33075;BME280;19433;51.292;6.868;2023-04-15T00:53:14;99523.47;;;5.82;81.80
33075;BME280;19433;51.292;6.868;2023-04-15T01:03:34;99523.00;;;5.99;80.91
33075;BME280;19433;51.292;6.868;2023-04-15T01:05:59;99529.53;;;6.26;79.28
33075;BME280;19433;51.292;6.868;2023-04-15T01:08:28;99523.00;;;6.27;78.92
33075;BME280;19433;51.292;6.868;2023-04-15T01:10:57;99529.88;;;6.38;78.28
33075;BME280;19433;51.292;6.868;2023-04-15T01:13:27;99533.97;;;6.27;79.73
33075;BME280;19433;51.292;6.868;2023-04-15T01:15:55;99518.56;;;6.26;79.27
33075;BME280;19433;51.292;6.868;2023-04-15T01:18:21;99521.28;;;6.20;80.76
33075;BME280;19433;51.292;6.868;2023-04-15T01:20:47;99515.50;;;6.08;80.82
33075;BME280;19433;51.292;6.868;2023-04-15T01:23:13;99525.41;;;5.88;81.90
33075;BME280;19433;51.292;6.868;2023-04-15T01:25:38;99518.44;;;5.85;82.52
33075;BME280;19433;51.292;6.868;2023-04-15T01:28:04;99496.81;;;5.90;81.70
33075;BME280;19433;51.292;6.868;2023-04-15T01:30:33;99524.81;;;6.14;81.56
33075;BME280;19433;51.292;6.868;2023-04-15T01:32:58;99515.59;;;6.21;81.02
33075;BME280;19433;51.292;6.868;2023-04-15T01:35:24;99521.56;;;6.31;80.03
33075;BME280;19433;51.292;6.868;2023-04-15T01:37:51;99511.81;;;6.22;80.83
33075;BME280;19433;51.292;6.868;2023-04-15T01:40:16;99523.66;;;6.29;80.73
33075;BME280;19433;51.292;6.868;2023-04-15T01:42:41;99513.25;;;6.18;81.04
33075;BME280;19433;51.292;6.868;2023-04-15T01:45:08;99516.56;;;6.07;81.53
33075;BME280;19433;51.292;6.868;2023-04-15T01:47:34;99518.06;;;6.10;82.00
33075;BME280;19433;51.292;6.868;2023-04-15T01:49:59;99521.78;;;6.02;82.37
33075;BME280;19433;51.292;6.868;2023-04-15T01:52:25;99518.63;;;5.84;83.61
33075;BME280;19433;51.292;6.868;2023-04-15T01:57:27;99511.94;;;5.65;85.90
33075;BME280;19433;51.292;6.868;2023-04-15T01:59:53;99516.50;;;5.58;86.39
33075;BME280;19433;51.292;6.868;2023-04-15T02:02:18;99516.84;;;5.48;87.25
33075;BME280;19433;51.292;6.868;2023-04-15T02:04:44;99513.69;;;5.30;87.86
33075;BME280;19433;51.292;6.868;2023-04-15T02:07:09;99520.13;;;5.22;88.53
33075;BME280;19433;51.292;6.868;2023-04-15T02:09:34;99513.94;;;5.14;89.08
33075;BME280;19433;51.292;6.868;2023-04-15T02:12:00;99516.47;;;5.15;88.43
33075;BME280;19433;51.292;6.868;2023-04-15T02:14:25;99521.66;;;5.10;88.02
33075;BME280;19433;51.292;6.868;2023-04-15T02:16:51;99520.25;;;5.14;89.27
33075;BME280;19433;51.292;6.868;2023-04-15T02:19:16;99515.69;;;4.85;89.57
33075;BME280;19433;51.292;6.868;2023-04-15T02:21:41;99534.00;;;4.85;90.92
33075;BME280;19433;51.292;6.868;2023-04-15T02:24:07;99518.44;;;4.71;92.55
33075;BME280;19433;51.292;6.868;2023-04-15T02:26:32;99528.34;;;4.86;93.25
33075;BME280;19433;51.292;6.868;2023-04-15T02:28:58;99543.13;;;4.77;94.13
33075;BME280;19433;51.292;6.868;2023-04-15T02:31:24;99544.97;;;4.70;93.00
33075;BME280;19433;51.292;6.868;2023-04-15T02:33:50;99539.94;;;4.44;95.42
33075;BME280;19433;51.292;6.868;2023-04-15T02:36:15;99532.13;;;4.41;95.83
33075;BME280;19433;51.292;6.868;2023-04-15T02:38:40;99544.53;;;4.29;95.53
33075;BME280;19433;51.292;6.868;2023-04-15T02:41:10;99541.53;;;4.24;96.34
33075;BME280;19433;51.292;6.868;2023-04-15T02:43:36;99548.59;;;4.18;96.90
33075;BME280;19433;51.292;6.868;2023-04-15T02:46:12;99549.06;;;4.07;97.84
33075;BME280;19433;51.292;6.868;2023-04-15T02:48:38;99543.22;;;4.10;100.00
33075;BME280;19433;51.292;6.868;2023-04-15T02:51:18;99552.13;;;3.89;100.00
33075;BME280;19433;51.292;6.868;2023-04-15T02:53:44;99553.31;;;3.87;100.00
33075;BME280;19433;51.292;6.868;2023-04-15T02:56:10;99555.13;;;3.80;100.00
33075;BME280;19433;51.292;6.868;2023-04-15T02:58:38;99550.50;;;3.80;99.95
33075;BME280;19433;51.292;6.868;2023-04-15T03:01:03;99539.81;;;3.71;100.00
33075;BME280;19433;51.292;6.868;2023-04-15T03:03:34;99540.44;;;3.58;100.00
33075;BME280;19433;51.292;6.868;2023-04-15T03:05:59;99565.25;;;3.71;100.00
33075;BME280;19433;51.292;6.868;2023-04-15T03:08:25;99565.91;;;3.73;100.00
33075;BME280;19433;51.292;6.868;2023-04-15T03:10:50;99562.28;;;3.58;100.00
33075;BME280;19433;51.292;6.868;2023-04-15T03:13:16;99558.19;;;3.54;100.00
33075;BME280;19433;51.292;6.868;2023-04-15T03:15:42;99561.19;;;3.44;100.00
33075;BME280;19433;51.292;6.868;2023-04-15T03:18:07;99563.59;;;3.39;100.00
33075;BME280;19433;51.292;6.868;2023-04-15T03:20:32;99549.00;;;3.24;100.00
33075;BME280;19433;51.292;6.868;2023-04-15T03:22:58;99559.94;;;3.24;100.00
33075;BME280;19433;51.292;6.868;2023-04-15T03:25:23;99556.78;;;3.12;100.00
33075;BME280;19433;51.292;6.868;2023-04-15T03:27:48;99555.41;;;3.08;100.00
33075;BME280;19433;51.292;6.868;2023-04-15T03:30:13;99555.81;;;3.05;100.00
33075;BME280;19433;51.292;6.868;2023-04-15T03:32:39;99554.22;;;3.11;100.00
33075;BME280;19433;51.292;6.868;2023-04-15T03:35:04;99555.97;;;3.04;100.00
33075;BME280;19433;51.292;6.868;2023-04-15T03:37:34;99573.13;;;3.12;100.00
33075;BME280;19433;51.292;6.868;2023-04-15T03:39:59;99567.84;;;3.11;100.00
33075;BME280;19433;51.292;6.868;2023-04-15T03:42:25;99558.81;;;3.10;100.00
33075;BME280;19433;51.292;6.868;2023-04-15T03:44:51;99562.41;;;3.11;100.00
33075;BME280;19433;51.292;6.868;2023-04-15T03:47:16;99573.00;;;3.06;100.00
33075;BME280;19433;51.292;6.868;2023-04-15T03:49:41;99577.75;;;3.12;100.00
33075;BME280;19433;51.292;6.868;2023-04-15T03:52:07;99587.78;;;3.20;100.00
33075;BME280;19433;51.292;6.868;2023-04-15T03:54:32;99585.25;;;3.10;100.00
33075;BME280;19433;51.292;6.868;2023-04-15T03:57:06;99590.88;;;3.16;100.00
33075;BME280;19433;51.292;6.868;2023-04-15T03:59:31;99581.09;;;3.22;100.00
33075;BME280;19433;51.292;6.868;2023-04-15T04:01:57;99588.97;;;3.48;100.00
33075;BME280;19433;51.292;6.868;2023-04-15T04:04:22;99597.84;;;3.50;100.00
33075;BME280;19433;51.292;6.868;2023-04-15T04:06:47;99587.63;;;3.44;100.00
33075;BME280;19433;51.292;6.868;2023-04-15T04:09:13;99596.59;;;3.52;100.00
33075;BME280;19433;51.292;6.868;2023-04-15T04:11:38;99589.09;;;3.54;100.00
33075;BME280;19433;51.292;6.868;2023-04-15T04:14:03;99592.81;;;3.62;100.00
33075;BME280;19433;51.292;6.868;2023-04-15T04:16:32;99598.34;;;3.76;100.00
33075;BME280;19433;51.292;6.868;2023-04-15T04:18:57;99591.16;;;3.75;100.00
33075;BME280;19433;51.292;6.868;2023-04-15T04:21:22;99596.66;;;3.67;100.00
33075;BME280;19433;51.292;6.868;2023-04-15T04:23:48;99587.75;;;3.73;100.00
33075;BME280;19433;51.292;6.868;2023-04-15T04:26:13;99607.44;;;3.92;100.00
33075;BME280;19433;51.292;6.868;2023-04-15T04:28:38;99597.03;;;3.87;100.00
33075;BME280;19433;51.292;6.868;2023-04-15T04:31:05;99610.03;;;3.85;100.00
33075;BME280;19433;51.292;6.868;2023-04-15T04:33:31;99609.75;;;3.80;100.00
33075;BME280;19433;51.292;6.868;2023-04-15T04:35:57;99621.03;;;3.77;100.00
33075;BME280;19433;51.292;6.868;2023-04-15T04:38:22;99615.06;;;3.73;100.00
33075;BME280;19433;51.292;6.868;2023-04-15T04:40:47;99624.44;;;3.79;100.00
33075;BME280;19433;51.292;6.868;2023-04-15T04:43:13;99612.16;;;3.75;100.00
33075;BME280;19433;51.292;6.868;2023-04-15T04:45:40;99620.53;;;3.73;100.00
33075;BME280;19433;51.292;6.868;2023-04-15T04:48:05;99626.91;;;3.88;100.00
33075;BME280;19433;51.292;6.868;2023-04-15T04:50:33;99620.19;;;3.76;100.00
33075;BME280;19433;51.292;6.868;2023-04-15T04:52:59;99626.56;;;3.92;100.00
33075;BME280;19433;51.292;6.868;2023-04-15T04:55:24;99630.69;;;3.87;100.00
33075;BME280;19433;51.292;6.868;2023-04-15T04:57:49;99621.81;;;3.85;100.00
33075;BME280;19433;51.292;6.868;2023-04-15T05:00:16;99630.31;;;3.91;100.00
33075;BME280;19433;51.292;6.868;2023-04-15T05:02:42;99624.38;;;3.87;100.00
33075;BME280;19433;51.292;6.868;2023-04-15T05:05:09;99639.44;;;4.06;100.00
33075;BME280;19433;51.292;6.868;2023-04-15T05:07:34;99635.72;;;3.99;100.00
33075;BME280;19433;51.292;6.868;2023-04-15T05:09:59;99648.84;;;4.03;100.00
33075;BME280;19433;51.292;6.868;2023-04-15T05:12:25;99645.84;;;4.13;100.00
33075;BME280;19433;51.292;6.868;2023-04-15T05:14:50;99645.72;;;4.29;100.00
33075;BME280;19433;51.292;6.868;2023-04-15T05:17:16;99643.81;;;4.30;100.00
33075;BME280;19433;51.292;6.868;2023-04-15T05:19:41;99643.97;;;4.51;100.00
33075;BME280;19433;51.292;6.868;2023-04-15T05:22:06;99648.91;;;4.55;100.00
33075;BME280;19433;51.292;6.868;2023-04-15T05:24:32;99648.59;;;4.50;100.00
33075;BME280;19433;51.292;6.868;2023-04-15T05:26:57;99652.31;;;4.57;100.00
33075;BME280;19433;51.292;6.868;2023-04-15T05:29:22;99648.31;;;4.60;100.00
33075;BME280;19433;51.292;6.868;2023-04-15T05:31:48;99655.59;;;4.68;100.00
33075;BME280;19433;51.292;6.868;2023-04-15T05:34:15;99646.19;;;4.70;100.00
33075;BME280;19433;51.292;6.868;2023-04-15T05:39:55;99677.16;;;5.00;100.00
33075;BME280;19433;51.292;6.868;2023-04-15T05:42:21;99675.63;;;5.12;100.00
33075;BME280;19433;51.292;6.868;2023-04-15T05:44:52;99676.19;;;5.22;100.00
33075;BME280;19433;51.292;6.868;2023-04-15T05:47:17;99674.69;;;5.35;100.00
33075;BME280;19433;51.292;6.868;2023-04-15T05:53:01;99687.75;;;5.69;100.00
33075;BME280;19433;51.292;6.868;2023-04-15T06:00:36;99700.94;;;6.09;100.00
33075;BME280;19433;51.292;6.868;2023-04-15T06:03:02;99708.69;;;6.27;99.89
33075;BME280;19433;51.292;6.868;2023-04-15T06:05:28;99701.38;;;6.34;99.41
33075;BME280;19433;51.292;6.868;2023-04-15T06:07:53;99709.66;;;6.62;98.65
33075;BME280;19433;51.292;6.868;2023-04-15T06:10:18;99713.44;;;6.61;98.58
33075;BME280;19433;51.292;6.868;2023-04-15T06:12:43;99723.91;;;6.51;98.89
33075;BME280;19433;51.292;6.868;2023-04-15T06:15:09;99718.16;;;6.67;98.48
33075;BME280;19433;51.292;6.868;2023-04-15T06:17:35;99729.94;;;6.89;97.65
33075;BME280;19433;51.292;6.868;2023-04-15T06:20:01;99735.75;;;7.00;96.87
33075;BME280;19433;51.292;6.868;2023-04-15T06:22:26;99736.69;;;7.14;96.69
33075;BME280;19433;51.292;6.868;2023-04-15T06:24:51;99734.06;;;7.34;95.69
33075;BME280;19433;51.292;6.868;2023-04-15T06:27:17;99748.50;;;7.84;93.94
33075;BME280;19433;51.292;6.868;2023-04-15T06:29:42;99748.75;;;7.95;92.11
33075;BME280;19433;51.292;6.868;2023-04-15T06:32:08;99735.81;;;7.83;93.62
33075;BME280;19433;51.292;6.868;2023-04-15T06:34:33;99753.28;;;8.16;92.59
33075;BME280;19433;51.292;6.868;2023-04-15T06:36:58;99746.19;;;8.41;91.57
33075;BME280;19433;51.292;6.868;2023-04-15T06:39:25;99749.03;;;8.81;90.61
33075;BME280;19433;51.292;6.868;2023-04-15T06:41:50;99755.41;;;9.14;87.12
33075;BME280;19433;51.292;6.868;2023-04-15T06:44:16;99756.78;;;9.70;86.37
33075;BME280;19433;51.292;6.868;2023-04-15T06:46:42;99762.56;;;10.89;80.89
33075;BME280;19433;51.292;6.868;2023-04-15T06:49:08;99763.31;;;12.44;71.33
33075;BME280;19433;51.292;6.868;2023-04-15T06:51:34;99776.28;;;13.80;65.43
33075;BME280;19433;51.292;6.868;2023-04-15T06:54:00;99781.34;;;13.83;62.44
33075;BME280;19433;51.292;6.868;2023-04-15T06:56:26;99772.63;;;13.21;66.29
33075;BME280;19433;51.292;6.868;2023-04-15T06:58:52;99779.31;;;13.43;65.11
33075;BME280;19433;51.292;6.868;2023-04-15T07:01:17;99791.44;;;14.12;62.70
33075;BME280;19433;51.292;6.868;2023-04-15T07:03:43;99773.47;;;14.83;57.46
33075;BME280;19433;51.292;6.868;2023-04-15T07:06:08;99788.00;;;12.45;66.82
33075;BME280;19433;51.292;6.868;2023-04-15T07:08:34;99792.50;;;12.28;69.35
33075;BME280;19433;51.292;6.868;2023-04-15T07:10:59;99796.41;;;12.68;69.04
33075;BME280;19433;51.292;6.868;2023-04-15T07:13:25;99803.84;;;12.56;67.29
33075;BME280;19433;51.292;6.868;2023-04-15T07:15:51;99809.66;;;13.26;65.38
33075;BME280;19433;51.292;6.868;2023-04-15T07:18:16;99810.09;;;13.12;65.11
33075;BME280;19433;51.292;6.868;2023-04-15T07:20:41;99821.66;;;12.79;67.33
33075;BME280;19433;51.292;6.868;2023-04-15T07:23:07;99825.88;;;13.76;64.60
33075;BME280;19433;51.292;6.868;2023-04-15T07:25:32;99819.56;;;13.46;61.95
33075;BME280;19433;51.292;6.868;2023-04-15T07:27:57;99831.22;;;13.89;61.33
33075;BME280;19433;51.292;6.868;2023-04-15T07:30:23;99836.63;;;13.72;60.94
33075;BME280;19433;51.292;6.868;2023-04-15T07:32:48;99829.63;;;12.57;65.34
33075;BME280;19433;51.292;6.868;2023-04-15T07:35:13;99835.56;;;12.60;67.27
33075;BME280;19433;51.292;6.868;2023-04-15T07:37:39;99834.91;;;12.77;65.47
33075;BME280;19433;51.292;6.868;2023-04-15T07:40:04;99846.28;;;13.93;61.56
33075;BME280;19433;51.292;6.868;2023-04-15T07:42:32;99847.50;;;13.97;60.78
33075;BME280;19433;51.292;6.868;2023-04-15T07:44:58;99851.13;;;12.91;60.03
33075;BME280;19433;51.292;6.868;2023-04-15T07:47:23;99841.75;;;13.34;60.48
33075;BME280;19433;51.292;6.868;2023-04-15T07:49:48;99856.13;;;12.35;62.46
33075;BME280;19433;51.292;6.868;2023-04-15T07:52:15;99858.34;;;11.89;65.17
33075;BME280;19433;51.292;6.868;2023-04-15T07:54:40;99860.59;;;12.17;66.12
33075;BME280;19433;51.292;6.868;2023-04-15T07:57:06;99852.56;;;11.10;70.49
33075;BME280;19433;51.292;6.868;2023-04-15T07:59:32;99856.56;;;11.70;69.04
33075;BME280;19433;51.292;6.868;2023-04-15T08:01:57;99857.47;;;12.07;68.47
33075;BME280;19433;51.292;6.868;2023-04-15T08:04:23;99863.72;;;12.03;68.12
33075;BME280;19433;51.292;6.868;2023-04-15T08:06:49;99859.19;;;12.26;66.40
33075;BME280;19433;51.292;6.868;2023-04-15T08:09:14;99871.03;;;11.97;66.84
33075;BME280;19433;51.292;6.868;2023-04-15T08:11:40;99863.34;;;12.17;67.58
33075;BME280;19433;51.292;6.868;2023-04-15T08:14:05;99876.69;;;12.93;64.58
33075;BME280;19433;51.292;6.868;2023-04-15T08:16:31;99883.06;;;12.64;62.84
33075;BME280;19433;51.292;6.868;2023-04-15T08:18:56;99888.19;;;14.03;61.91
33075;BME280;19433;51.292;6.868;2023-04-15T08:21:22;99889.25;;;15.29;53.85
33075;BME280;19433;51.292;6.868;2023-04-15T08:23:49;99893.50;;;14.28;56.29
33075;BME280;19433;51.292;6.868;2023-04-15T08:26:15;99892.28;;;13.78;58.67
33075;BME280;19433;51.292;6.868;2023-04-15T08:28:41;99897.28;;;15.88;52.82
33075;BME280;19433;51.292;6.868;2023-04-15T08:31:07;99902.25;;;16.58;51.71
33075;BME280;19433;51.292;6.868;2023-04-15T08:33:33;99892.63;;;15.31;51.15
33075;BME280;19433;51.292;6.868;2023-04-15T08:35:58;99895.47;;;15.20;53.03
33075;BME280;19433;51.292;6.868;2023-04-15T08:38:23;99894.66;;;15.98;53.39
33075;BME280;19433;51.292;6.868;2023-04-15T08:40:49;99909.06;;;16.28;49.95
33075;BME280;19433;51.292;6.868;2023-04-15T08:43:20;99905.47;;;16.11;52.89
33075;BME280;19433;51.292;6.868;2023-04-15T08:45:49;99924.56;;;15.29;54.15
33075;BME280;19433;51.292;6.868;2023-04-15T08:48:16;99911.97;;;16.00;50.63
33075;BME280;19433;51.292;6.868;2023-04-15T08:50:41;99925.97;;;15.14;52.72
33075;BME280;19433;51.292;6.868;2023-04-15T08:53:08;99923.16;;;13.69;55.28
33075;BME280;19433;51.292;6.868;2023-04-15T08:55:35;99911.50;;;12.53;60.01
33075;BME280;19433;51.292;6.868;2023-04-15T08:58:04;99910.63;;;11.97;64.53
33075;BME280;19433;51.292;6.868;2023-04-15T09:00:30;99919.56;;;13.09;59.39
33075;BME280;19433;51.292;6.868;2023-04-15T09:02:57;99922.19;;;13.64;61.09
33075;BME280;19433;51.292;6.868;2023-04-15T09:05:23;99922.47;;;14.79;56.91
33075;BME280;19433;51.292;6.868;2023-04-15T09:07:49;99920.81;;;17.07;50.24
33075;BME280;19433;51.292;6.868;2023-04-15T09:10:15;99930.47;;;19.44;43.07
33075;BME280;19433;51.292;6.868;2023-04-15T09:12:41;99935.03;;;21.51;37.19
33075;BME280;19433;51.292;6.868;2023-04-15T09:15:11;99936.31;;;18.33;40.99
33075;BME280;19433;51.292;6.868;2023-04-15T09:17:42;99934.53;;;15.53;46.83
33075;BME280;19433;51.292;6.868;2023-04-15T09:20:12;99932.97;;;14.07;52.31
33075;BME280;19433;51.292;6.868;2023-04-15T09:22:39;99930.78;;;16.43;49.64
33075;BME280;19433;51.292;6.868;2023-04-15T09:25:24;99944.50;;;18.44;43.62
33075;BME280;19433;51.292;6.868;2023-04-15T09:27:55;99946.88;;;20.38;39.47
33075;BME280;19433;51.292;6.868;2023-04-15T09:30:21;99956.22;;;22.22;36.11
33075;BME280;19433;51.292;6.868;2023-04-15T09:32:56;99947.91;;;20.83;37.17
33075;BME280;19433;51.292;6.868;2023-04-15T09:35:23;99956.41;;;20.47;38.85
33075;BME280;19433;51.292;6.868;2023-04-15T09:37:49;99962.59;;;19.26;41.37
33075;BME280;19433;51.292;6.868;2023-04-15T09:40:33;99962.59;;;19.26;39.01
33075;BME280;19433;51.292;6.868;2023-04-15T09:42:59;99967.13;;;18.75;40.27
33075;BME280;19433;51.292;6.868;2023-04-15T09:45:26;99968.38;;;18.94;40.65
33075;BME280;19433;51.292;6.868;2023-04-15T09:47:51;99968.22;;;19.21;40.21
33075;BME280;19433;51.292;6.868;2023-04-15T09:50:18;99968.75;;;20.00;38.95
33075;BME280;19433;51.292;6.868;2023-04-15T09:52:44;99970.97;;;20.03;38.68
33075;BME280;19433;51.292;6.868;2023-04-15T09:55:11;99977.63;;;21.19;37.35
33075;BME280;19433;51.292;6.868;2023-04-15T09:57:38;99988.97;;;22.07;36.80
33075;BME280;19433;51.292;6.868;2023-04-15T10:00:04;99988.66;;;22.48;34.60
33075;BME280;19433;51.292;6.868;2023-04-15T10:02:31;99990.84;;;22.56;34.10
33075;BME280;19433;51.292;6.868;2023-04-15T10:04:56;100002.44;;;20.46;37.25
33075;BME280;19433;51.292;6.868;2023-04-15T10:07:22;99992.34;;;20.40;36.97
33075;BME280;19433;51.292;6.868;2023-04-15T10:09:48;99993.63;;;17.98;41.17
33075;BME280;19433;51.292;6.868;2023-04-15T10:12:15;99995.59;;;18.61;42.00
33075;BME280;19433;51.292;6.868;2023-04-15T10:14:41;100011.13;;;20.70;37.75
33075;BME280;19433;51.292;6.868;2023-04-15T10:17:10;100002.47;;;17.90;42.58
33075;BME280;19433;51.292;6.868;2023-04-15T10:19:36;99994.78;;;17.53;44.29
33075;BME280;19433;51.292;6.868;2023-04-15T10:22:02;100012.50;;;18.82;42.83
33075;BME280;19433;51.292;6.868;2023-04-15T10:24:30;100004.84;;;17.54;44.42
33075;BME280;19433;51.292;6.868;2023-04-15T10:26:56;99998.84;;;17.41;45.72
33075;BME280;19433;51.292;6.868;2023-04-15T10:29:24;99995.00;;;17.25;46.33
33075;BME280;19433;51.292;6.868;2023-04-15T10:31:51;99992.63;;;16.40;48.54
33075;BME280;19433;51.292;6.868;2023-04-15T10:34:18;100003.50;;;16.58;49.70
33075;BME280;19433;51.292;6.868;2023-04-15T10:36:44;100009.00;;;16.53;48.71
33075;BME280;19433;51.292;6.868;2023-04-15T10:39:41;100015.13;;;16.05;50.59
33075;BME280;19433;51.292;6.868;2023-04-15T10:42:15;100004.75;;;15.03;56.41
33075;BME280;19433;51.292;6.868;2023-04-15T10:44:48;100011.50;;;15.19;55.18
33075;BME280;19433;51.292;6.868;2023-04-15T10:47:15;100030.53;;;15.51;53.15
33075;BME280;19433;51.292;6.868;2023-04-15T10:50:02;100013.94;;;13.69;57.91
33075;BME280;19433;51.292;6.868;2023-04-15T10:52:28;100005.50;;;13.76;62.35
33075;BME280;19433;51.292;6.868;2023-04-15T10:55:21;100005.41;;;13.94;62.08
33075;BME280;19433;51.292;6.868;2023-04-15T10:57:50;100013.84;;;13.09;64.48
33075;BME280;19433;51.292;6.868;2023-04-15T11:00:18;100027.25;;;12.94;65.32
33075;BME280;19433;51.292;6.868;2023-04-15T11:05:10;100023.06;;;12.23;69.17
33075;BME280;19433;51.292;6.868;2023-04-15T11:10:02;100017.41;;;12.98;66.38
33075;BME280;19433;51.292;6.868;2023-04-15T11:12:34;100017.75;;;13.98;62.14
33075;BME280;19433;51.292;6.868;2023-04-15T11:18:07;100032.34;;;13.93;62.30
33075;BME280;19433;51.292;6.868;2023-04-15T11:20:33;100032.75;;;16.39;55.54
33075;BME280;19433;51.292;6.868;2023-04-15T11:22:58;100042.16;;;18.83;46.32
33075;BME280;19433;51.292;6.868;2023-04-15T11:25:31;100054.00;;;18.95;44.60
33075;BME280;19433;51.292;6.868;2023-04-15T11:27:57;100055.56;;;17.90;46.83
33075;BME280;19433;51.292;6.868;2023-04-15T11:30:24;100057.69;;;16.45;50.71
33075;BME280;19433;51.292;6.868;2023-04-15T11:32:52;100051.28;;;14.38;57.88
33075;BME280;19433;51.292;6.868;2023-04-15T11:35:17;100040.22;;;13.18;64.21
33075;BME280;19433;51.292;6.868;2023-04-15T11:37:44;100040.91;;;12.95;64.60
33075;BME280;19433;51.292;6.868;2023-04-15T11:40:10;100042.03;;;12.88;65.04
33075;BME280;19433;51.292;6.868;2023-04-15T11:42:35;100051.88;;;12.84;65.80
33075;BME280;19433;51.292;6.868;2023-04-15T11:45:07;100058.69;;;12.45;70.08
33075;BME280;19433;51.292;6.868;2023-04-15T11:47:37;100058.13;;;12.79;67.55
33075;BME280;19433;51.292;6.868;2023-04-15T11:50:21;100050.94;;;12.72;66.33
33075;BME280;19433;51.292;6.868;2023-04-15T11:52:54;100059.03;;;11.98;68.06
33075;BME280;19433;51.292;6.868;2023-04-15T11:55:19;100055.94;;;12.38;69.51
33075;BME280;19433;51.292;6.868;2023-04-15T11:57:45;100061.41;;;11.57;72.25
33075;BME280;19433;51.292;6.868;2023-04-15T12:00:11;100064.63;;;10.96;74.28
33075;BME280;19433;51.292;6.868;2023-04-15T12:02:38;100074.81;;;11.53;74.61
33075;BME280;19433;51.292;6.868;2023-04-15T12:05:05;100066.72;;;11.96;72.12
33075;BME280;19433;51.292;6.868;2023-04-15T12:07:30;100078.09;;;12.13;69.43
33075;BME280;19433;51.292;6.868;2023-04-15T12:09:57;100085.47;;;12.26;69.78
33075;BME280;19433;51.292;6.868;2023-04-15T12:12:28;100080.47;;;11.72;71.02
33075;BME280;19433;51.292;6.868;2023-04-15T12:14:55;100088.16;;;11.76;72.68
33075;BME280;19433;51.292;6.868;2023-04-15T12:17:22;100087.66;;;11.41;73.65
33075;BME280;19433;51.292;6.868;2023-04-15T12:19:48;100073.69;;;11.23;74.11
33075;BME280;19433;51.292;6.868;2023-04-15T12:22:15;100097.66;;;11.36;73.73
33075;BME280;19433;51.292;6.868;2023-04-15T12:24:42;100103.97;;;11.56;72.40
33075;BME280;19433;51.292;6.868;2023-04-15T12:27:12;100097.88;;;11.34;73.92
33075;BME280;19433;51.292;6.868;2023-04-15T12:29:39;100110.50;;;11.68;72.97
33075;BME280;19433;51.292;6.868;2023-04-15T12:34:36;100115.84;;;11.12;75.06
33075;BME280;19433;51.292;6.868;2023-04-15T12:37:05;100114.81;;;10.86;75.95
33075;BME280;19433;51.292;6.868;2023-04-15T12:39:34;100119.75;;;10.84;77.22
33075;BME280;19433;51.292;6.868;2023-04-15T12:42:00;100130.56;;;10.99;75.61
33075;BME280;19433;51.292;6.868;2023-04-15T12:44:26;100131.84;;;10.83;75.73
33075;BME280;19433;51.292;6.868;2023-04-15T12:46:52;100141.63;;;10.46;78.28
33075;BME280;19433;51.292;6.868;2023-04-15T12:49:18;100132.91;;;10.30;78.63
33075;BME280;19433;51.292;6.868;2023-04-15T12:51:50;100122.06;;;10.28;78.49
33075;BME280;19433;51.292;6.868;2023-04-15T12:54:16;100142.06;;;10.50;77.76
33075;BME280;19433;51.292;6.868;2023-04-15T12:56:41;100147.13;;;10.86;76.11
33075;BME280;19433;51.292;6.868;2023-04-15T12:59:07;100139.50;;;10.75;76.63
33075;BME280;19433;51.292;6.868;2023-04-15T13:01:33;100153.09;;;10.96;76.41
33075;BME280;19433;51.292;6.868;2023-04-15T13:03:58;100147.16;;;10.79;76.88
33075;BME280;19433;51.292;6.868;2023-04-15T13:06:23;100156.28;;;11.00;75.41
33075;BME280;19433;51.292;6.868;2023-04-15T13:08:49;100154.94;;;11.28;74.64
33075;BME280;19433;51.292;6.868;2023-04-15T13:11:15;100158.63;;;11.67;73.56
33075;BME280;19433;51.292;6.868;2023-04-15T13:13:41;100165.53;;;12.34;70.73
33075;BME280;19433;51.292;6.868;2023-04-15T13:16:06;100166.72;;;12.13;70.69
33075;BME280;19433;51.292;6.868;2023-04-15T13:18:32;100180.31;;;11.77;72.09
33075;BME280;19433;51.292;6.868;2023-04-15T13:20:58;100185.34;;;12.00;70.66
33075;BME280;19433;51.292;6.868;2023-04-15T13:23:24;100173.31;;;12.50;68.28
33075;BME280;19433;51.292;6.868;2023-04-15T13:25:49;100191.09;;;12.67;67.58
33075;BME280;19433;51.292;6.868;2023-04-15T13:28:15;100190.06;;;12.62;67.03
33075;BME280;19433;51.292;6.868;2023-04-15T13:30:40;100194.31;;;12.33;69.11